Time;durP1;ratioP1;P1;durP2;ratioP2;P2;SDS_P1;SDS_P2;PMS_P1;PMS_P2;Temp;Humidity;BMP_temperature;BMP_pressure;BME280_temperature;BME280_humidity;BME280_pressure;Samples;Min_cycle;Max_cycle;Signal;HPM_P1;HPM_P2
2022/01/09 00:00:42;;;;;;;13.73;11.20;;;4.50;99.90;;;;;;6161094;23;20017;-89
2022/01/09 00:03:08;;;;;;;13.27;11.18;;;4.50;99.90;;;;;;6159152;23;20021;-87
2022/01/09 00:05:34;;;;;;;13.93;10.45;;;4.50;99.90;;;;;;6185152;23;20076;-87
2022/01/09 00:08:01;;;;;;;13.82;11.25;;;4.50;99.90;;;;;;6159157;23;20100;-87
2022/01/09 00:10:28;;;;;;;13.82;10.90;;;4.50;99.90;;;;;;6159382;23;20024;-89
2022/01/09 00:12:54;;;;;;;14.15;10.80;;;4.50;99.90;;;;;;6159084;23;20144;-87
2022/01/09 00:15:20;;;;;;;14.27;11.40;;;4.50;99.90;;;;;;6159112;23;20052;-88
2022/01/09 00:17:46;;;;;;;14.93;10.77;;;4.50;99.90;;;;;;6159026;23;20013;-87
2022/01/09 00:20:13;;;;;;;12.57;10.53;;;4.50;99.90;;;;;;6158906;23;20403;-87
2022/01/09 00:25:09;;;;;;;14.77;9.73;;;4.50;99.90;;;;;;6158814;23;20080;-89
2022/01/09 00:27:38;;;;;;;13.43;11.13;;;4.50;99.90;;;;;;6158778;23;20061;-88
2022/01/09 00:30:09;;;;;;;15.35;11.52;;;4.50;99.90;;;;;;6158921;23;20326;-88
2022/01/09 00:32:35;;;;;;;16.20;11.77;;;4.50;99.90;;;;;;6160197;23;20529;-89
2022/01/09 00:35:01;;;;;;;14.23;11.50;;;4.50;99.90;;;;;;6160297;23;20020;-88
2022/01/09 00:37:27;;;;;;;15.07;11.98;;;4.50;99.90;;;;;;6185815;23;20017;-88
2022/01/09 00:39:53;;;;;;;15.13;11.83;;;4.50;99.90;;;;;;6160862;23;20446;-88
2022/01/09 00:42:20;;;;;;;14.30;11.27;;;4.50;99.90;;;;;;6160966;23;20314;-87
2022/01/09 00:44:46;;;;;;;14.93;12.00;;;4.50;99.90;;;;;;6160883;23;20071;-88
2022/01/09 00:47:11;;;;;;;14.17;11.30;;;4.50;99.90;;;;;;6160599;23;20017;-87
2022/01/09 00:49:37;;;;;;;14.33;11.47;;;4.50;99.90;;;;;;6160848;23;20435;-88
2022/01/09 00:52:03;;;;;;;13.83;11.20;;;4.50;99.90;;;;;;6160470;23;20013;-88
2022/01/09 00:54:29;;;;;;;14.75;11.93;;;4.50;99.90;;;;;;6160769;23;20021;-87
2022/01/09 00:56:55;;;;;;;14.87;11.37;;;4.50;99.90;;;;;;6160647;23;20044;-88
2022/01/09 00:59:21;;;;;;;15.47;11.43;;;4.50;99.90;;;;;;6160493;23;20040;-88
2022/01/09 01:01:46;;;;;;;15.70;11.40;;;4.50;99.90;;;;;;6187276;23;20348;-89
2022/01/09 01:04:12;;;;;;;16.27;12.00;;;4.50;99.90;;;;;;6160250;23;20013;-89
2022/01/09 01:06:38;;;;;;;13.73;11.03;;;4.50;99.90;;;;;;6160642;23;20017;-88
2022/01/09 01:09:04;;;;;;;14.43;11.37;;;4.50;99.90;;;;;;6160313;23;20020;-88
2022/01/09 01:11:29;;;;;;;16.43;11.80;;;4.50;99.90;;;;;;6160331;23;20072;-87
2022/01/09 01:13:55;;;;;;;13.03;10.93;;;4.50;99.90;;;;;;6160280;23;20029;-86
2022/01/09 01:16:21;;;;;;;14.73;11.70;;;4.50;99.90;;;;;;6160421;23;20017;-88
2022/01/09 01:18:47;;;;;;;15.73;12.20;;;4.50;99.90;;;;;;6160764;23;20020;-89
2022/01/09 01:21:13;;;;;;;14.70;11.53;;;4.50;99.90;;;;;;6160582;23;20016;-88
2022/01/09 01:23:40;;;;;;;15.00;12.10;;;4.50;99.90;;;;;;6160261;23;20013;-87
2022/01/09 01:26:06;;;;;;;16.00;12.80;;;4.50;99.90;;;;;;6159786;23;20542;-89
2022/01/09 01:28:32;;;;;;;15.52;13.10;;;4.50;99.90;;;;;;6160294;23;20344;-89
2022/01/09 01:30:58;;;;;;;17.20;13.52;;;4.50;99.90;;;;;;6160149;23;20071;-88
2022/01/09 01:33:24;;;;;;;17.00;13.60;;;4.50;99.90;;;;;;6160475;23;20017;-88
2022/01/09 01:35:50;;;;;;;17.83;13.60;;;4.50;99.90;;;;;;6159999;23;20016;-89
2022/01/09 01:38:16;;;;;;;16.70;13.40;;;4.50;99.90;;;;;;6160570;23;20012;-90
2022/01/09 01:40:42;;;;;;;15.73;13.27;;;4.50;99.90;;;;;;6160617;23;20107;-90
2022/01/09 01:43:09;;;;;;;18.23;14.23;;;4.50;99.90;;;;;;6160776;23;20455;-88
2022/01/09 01:45:34;;;;;;;17.05;13.90;;;4.50;99.90;;;;;;6160456;23;20064;-89
2022/01/09 01:48:06;;;;;;;16.60;13.70;;;4.50;99.90;;;;;;6159768;23;20017;-88
2022/01/09 01:50:37;;;;;;;18.13;13.80;;;4.50;99.90;;;;;;6159570;23;20013;-89
2022/01/09 01:53:11;;;;;;;18.85;14.63;;;4.50;99.90;;;;;;6160424;23;20028;-87
2022/01/09 01:55:39;;;;;;;19.08;15.50;;;4.50;99.90;;;;;;6186401;23;20028;-87
2022/01/09 01:58:06;;;;;;;20.15;14.88;;;4.50;99.90;;;;;;6159956;23;20103;-88
2022/01/09 02:05:44;;;;;;;19.25;15.05;;;4.50;99.90;;;;;;6156193;23;20383;-86
2022/01/09 02:08:15;;;;;;;18.63;15.15;;;4.50;99.90;;;;;;6155095;23;20108;-85
2022/01/09 02:10:48;;;;;;;18.25;14.73;;;4.50;99.90;;;;;;6154919;23;20486;-84
2022/01/09 02:13:16;;;;;;;20.25;15.43;;;4.50;99.90;;;;;;6155036;23;20025;-82
2022/01/09 02:15:45;;;;;;;19.02;15.18;;;4.50;99.90;;;;;;6130083;23;20489;-85
2022/01/09 02:18:16;;;;;;;20.17;15.60;;;4.50;99.90;;;;;;6154854;23;20092;-85
2022/01/09 02:20:43;;;;;;;25.20;16.73;;;4.50;99.90;;;;;;6156404;23;20028;-83
2022/01/09 02:23:11;;;;;;;21.70;16.50;;;4.50;99.90;;;;;;6155946;23;20020;-87
2022/01/09 02:25:38;;;;;;;22.98;16.58;;;4.50;99.90;;;;;;6105732;23;20018;-87
2022/01/09 02:28:05;;;;;;;20.27;15.90;;;4.60;99.90;;;;;;6129992;23;20018;-87
2022/01/09 02:30:37;;;;;;;;;;;4.60;99.90;;;;;;6130902;23;20013;-85
2022/01/09 02:33:06;;;;;;;23.00;16.58;;;4.60;99.90;;;;;;6105688;23;19920;-88
2022/01/09 02:35:32;;;;;;;22.23;16.55;;;4.50;99.90;;;;;;6105752;23;20022;-87
2022/01/09 02:38:04;;;;;;;23.67;17.63;;;4.60;99.90;;;;;;6129905;23;20017;-86
2022/01/09 02:40:33;;;;;;;31.63;20.52;;;4.50;99.90;;;;;;6130106;23;20017;-86
2022/01/09 02:42:59;;;;;;;24.95;18.13;;;4.60;99.90;;;;;;6156327;23;20093;-87
2022/01/09 02:46:10;;;;;;;27.85;20.00;;;4.60;99.90;;;;;;6130414;23;20032;-88
2022/01/09 02:48:50;;;;;;;27.77;19.25;;;4.60;99.90;;;;;;6130291;23;20017;-87
2022/01/09 02:51:17;;;;;;;24.92;17.63;;;4.60;99.90;;;;;;6130145;23;20021;-87
2022/01/09 02:53:48;;;;;;;28.10;19.08;;;4.60;99.90;;;;;;6130110;23;20013;-87
2022/01/09 02:56:15;;;;;;;26.10;16.65;;;4.60;99.90;;;;;;6129931;23;20017;-87
2022/01/09 02:58:42;;;;;;;;;;;4.70;99.90;;;;;;6130446;23;20014;-88
2022/01/09 03:01:18;;;;;;;29.02;15.05;;;4.70;99.90;;;;;;6129848;23;20349;-87
2022/01/09 03:03:44;;;;;;;22.42;14.45;;;4.70;99.90;;;;;;6130194;23;20017;-87
2022/01/09 03:06:10;;;;;;;27.53;15.37;;;4.70;99.90;;;;;;6129232;23;20060;-88
2022/01/09 03:08:37;;;;;;;22.07;12.27;;;4.70;99.90;;;;;;6129282;23;20072;-86
2022/01/09 03:11:03;;;;;;;26.08;10.80;;;4.80;99.90;;;;;;6129707;23;20017;-85
2022/01/09 03:13:28;;;;;;;20.57;11.03;;;4.80;99.90;;;;;;6129753;23;20350;-86
2022/01/09 03:15:54;;;;;;;22.33;9.60;;;4.90;99.90;;;;;;6105203;23;20020;-85
2022/01/09 03:18:41;;;;;;;23.87;8.43;;;4.90;99.90;;;;;;6129299;23;20028;-85
2022/01/09 03:21:10;;;;;;;21.63;7.70;;;4.90;99.90;;;;;;6105101;23;20021;-85
2022/01/09 03:23:36;;;;;;;21.48;7.13;;;5.00;99.90;;;;;;6153725;23;20033;-84
2022/01/09 03:26:02;;;;;;;20.97;5.97;;;4.90;99.90;;;;;;6153932;23;20026;-85
2022/01/09 03:28:28;;;;;;;23.17;4.82;;;5.00;99.90;;;;;;6105110;23;20013;-84
2022/01/09 03:30:54;;;;;;;25.90;3.80;;;5.10;99.90;;;;;;6129569;23;20072;-84
2022/01/09 03:33:21;;;;;;;20.50;4.43;;;5.10;99.90;;;;;;6129664;23;20021;-85
2022/01/09 03:35:47;;;;;;;21.27;3.88;;;5.20;99.90;;;;;;6129574;23;20017;-86
2022/01/09 03:38:18;;;;;;;20.33;3.33;;;5.30;99.90;;;;;;6129694;23;20105;-84
2022/01/09 03:40:43;;;;;;;23.13;3.35;;;5.40;99.90;;;;;;6129623;23;20045;-83
2022/01/09 03:43:09;;;;;;;14.63;2.87;;;5.40;99.90;;;;;;6129452;23;20042;-85
2022/01/09 03:45:35;;;;;;;24.07;3.10;;;5.50;99.90;;;;;;6129464;23;20044;-84
2022/01/09 03:48:01;;;;;;;17.57;2.97;;;5.50;99.90;;;;;;6129406;23;20439;-84
2022/01/09 03:50:27;;;;;;;13.70;2.90;;;5.50;99.90;;;;;;6129445;23;20018;-85
2022/01/09 03:52:53;;;;;;;17.08;2.40;;;5.50;99.90;;;;;;6155696;23;20056;-84
2022/01/09 03:55:21;;;;;;;20.93;2.50;;;5.50;99.90;;;;;;6155731;23;20021;-84
2022/01/09 03:57:47;;;;;;;15.88;2.63;;;5.50;99.90;;;;;;6155749;23;20025;-84
2022/01/09 04:00:17;;;;;;;18.23;3.45;;;5.50;99.90;;;;;;6155926;23;20021;-85
2022/01/09 04:02:43;;;;;;;20.27;2.95;;;5.40;99.90;;;;;;6129847;23;20025;-83
2022/01/09 04:05:10;;;;;;;22.90;3.00;;;5.50;99.90;;;;;;6129624;23;20332;-86
2022/01/09 04:07:45;;;;;;;22.02;2.65;;;5.40;99.90;;;;;;6131408;23;20076;-86
2022/01/09 04:10:19;;;;;;;17.45;2.72;;;5.40;99.90;;;;;;6131702;23;20017;-85
2022/01/09 04:12:51;;;;;;;21.70;3.20;;;5.50;99.90;;;;;;6131692;23;20021;-84
2022/01/09 04:15:17;;;;;;;18.40;3.92;;;5.40;99.90;;;;;;6107143;23;20458;-83
2022/01/09 04:20:09;;;;;;;27.10;3.83;;;5.40;99.90;;;;;;6131333;23;20347;-85
2022/01/09 04:22:36;;;;;;;22.83;4.57;;;5.40;99.90;;;;;;6131203;23;20025;-86
2022/01/09 04:25:20;;;;;;;23.20;2.95;;;5.40;99.90;;;;;;6156086;23;20355;-87
2022/01/09 04:28:10;;;;;;;29.23;4.22;;;5.40;99.90;;;;;;6131644;23;20018;-87
2022/01/09 04:30:43;;;;;;;25.63;3.60;;;5.40;99.90;;;;;;6131471;23;20021;-86
2022/01/09 04:33:10;;;;;;;35.20;5.38;;;5.40;99.90;;;;;;6131275;23;20025;-83
2022/01/09 04:35:37;;;;;;;42.10;5.53;;;5.40;99.90;;;;;;6131280;23;20032;-85
2022/01/09 04:38:03;;;;;;;39.70;7.53;;;5.40;99.90;;;;;;6131035;23;20451;-85
2022/01/09 04:40:29;;;;;;;56.65;8.18;;;5.50;99.90;;;;;;6131298;23;20501;-85
2022/01/09 04:42:58;;;;;;;50.77;7.57;;;5.50;99.90;;;;;;6130911;23;20017;-86
2022/01/09 04:45:30;;;;;;;40.97;7.72;;;5.60;99.90;;;;;;6131081;23;20017;-84
2022/01/09 04:48:02;;;;;;;50.50;8.27;;;5.70;99.90;;;;;;6130949;23;20025;-85
2022/01/09 04:50:32;;;;;;;49.33;6.95;;;5.70;99.90;;;;;;6131018;23;20010;-83
2022/01/09 04:53:07;;;;;;;45.30;7.85;;;5.70;99.90;;;;;;6131030;23;20028;-84
2022/01/09 04:55:38;;;;;;;47.53;5.55;;;5.80;99.90;;;;;;6157090;23;20032;-84
2022/01/09 04:58:05;;;;;;;49.20;6.47;;;5.80;99.90;;;;;;6131062;23;20099;-85
2022/01/09 05:03:06;;;;;;;40.67;6.18;;;5.80;99.90;;;;;;6157856;23;20079;-95
2022/01/09 05:05:33;;;;;;;37.75;7.18;;;5.90;99.90;;;;;;6132430;23;20075;-94
2022/01/09 05:07:59;;;;;;;38.05;6.07;;;5.90;99.90;;;;;;6107961;23;20020;-93
2022/01/09 05:10:25;;;;;;;36.88;6.32;;;5.90;99.90;;;;;;6132350;23;20017;-94
2022/01/09 05:12:51;;;;;;;46.88;6.85;;;5.90;99.90;;;;;;6132774;23;20017;-96
2022/01/09 05:15:37;;;;;;;39.27;6.80;;;5.90;99.90;;;;;;6132276;23;20013;-95
2022/01/09 05:21:48;;;;;;;37.92;5.72;;;5.90;99.90;;;;;;6157302;23;20526;-86
2022/01/09 05:24:14;;;;;;;38.60;5.60;;;5.90;99.90;;;;;;6130797;23;20109;-86
2022/01/09 05:26:39;;;;;;;41.63;6.33;;;5.90;99.90;;;;;;6130874;23;20018;-86
2022/01/09 05:29:05;;;;;;;37.53;8.17;;;5.90;99.90;;;;;;6130844;23;20097;-86
2022/01/09 05:31:31;;;;;;;43.70;6.40;;;5.90;99.90;;;;;;6130998;23;20056;-86
2022/01/09 05:33:56;;;;;;;34.47;10.03;;;5.90;99.90;;;;;;6156768;23;20052;-87
2022/01/09 05:51:55;;;;;;;30.75;4.93;;;5.80;99.90;;;;;;6156310;23;20088;-87
2022/01/09 05:54:20;;;;;;;29.23;4.20;;;5.90;99.90;;;;;;6130375;23;20395;-87
2022/01/09 05:56:47;;;;;;;33.27;3.93;;;5.90;99.90;;;;;;6106154;23;20061;-86
2022/01/09 05:59:12;;;;;;;23.63;4.65;;;5.80;99.90;;;;;;6130637;23;20020;-86
2022/01/09 06:01:39;;;;;;;26.40;4.10;;;5.90;99.90;;;;;;6105951;23;20387;-85
2022/01/09 06:06:40;;;;;;;25.35;3.50;;;5.80;99.90;;;;;;6126776;23;20025;-86
2022/01/09 06:09:08;;;;;;;36.63;4.30;;;5.80;99.90;;;;;;6100759;23;20343;-86
2022/01/09 06:11:33;;;;;;;33.72;4.25;;;5.80;99.90;;;;;;6100996;23;20044;-86
2022/01/09 06:14:04;;;;;;;26.30;4.17;;;5.80;99.90;;;;;;6101313;23;20049;-86
2022/01/09 06:16:30;;;;;;;33.55;4.20;;;5.80;99.90;;;;;;6125156;23;20020;-86
2022/01/09 06:18:56;;;;;;;28.43;4.30;;;5.80;99.90;;;;;;6100799;23;20018;-86
2022/01/09 06:21:21;;;;;;;22.77;5.20;;;5.70;99.90;;;;;;6126863;23;20029;-86
2022/01/09 06:23:47;;;;;;;30.13;4.87;;;5.70;99.90;;;;;;6126868;23;20344;-86
2022/01/09 06:26:13;;;;;;;28.60;4.33;;;5.70;99.90;;;;;;6126960;23;20018;-86
2022/01/09 06:28:44;;;;;;;24.73;3.60;;;5.70;99.90;;;;;;6100743;23;20022;-85
2022/01/09 06:31:35;;;;;;;25.67;4.32;;;5.70;99.90;;;;;;6077250;23;20372;-85
2022/01/09 06:34:19;;;;;;;28.48;4.50;;;5.70;99.90;;;;;;6100848;23;20021;-85
2022/01/09 06:36:45;;;;;;;21.73;3.42;;;5.60;99.90;;;;;;6100825;23;20109;-86
2022/01/09 06:39:10;;;;;;;31.10;4.67;;;5.60;99.90;;;;;;6126698;23;20397;-85
2022/01/09 06:41:36;;;;;;;23.63;4.30;;;5.60;99.90;;;;;;6126604;23;20348;-85
2022/01/09 06:44:10;;;;;;;21.40;3.03;;;5.60;99.90;;;;;;6126520;23;20026;-86
2022/01/09 06:46:36;;;;;;;22.83;3.50;;;5.60;99.90;;;;;;6100571;23;20013;-85
2022/01/09 06:49:02;;;;;;;24.30;3.10;;;5.60;99.90;;;;;;6100617;23;20026;-86
2022/01/09 06:51:31;;;;;;;24.95;3.58;;;5.60;99.90;;;;;;6126812;23;20053;-85
2022/01/09 06:53:56;;;;;;;29.95;3.25;;;5.60;99.90;;;;;;6100529;23;20456;-85
2022/01/09 06:56:22;;;;;;;23.03;3.17;;;5.60;99.90;;;;;;6100585;23;20029;-86
2022/01/09 06:58:48;;;;;;;24.33;3.53;;;5.60;99.90;;;;;;6100653;23;20014;-85
2022/01/09 07:01:13;;;;;;;27.50;3.33;;;5.60;99.90;;;;;;6126698;23;20349;-85
2022/01/09 07:03:39;;;;;;;18.17;2.83;;;5.60;99.90;;;;;;6100702;23;20021;-86
2022/01/09 07:06:05;;;;;;;21.87;3.10;;;5.60;99.90;;;;;;6100689;23;20022;-87
2022/01/09 07:08:33;;;;;;;25.20;4.20;;;5.60;99.90;;;;;;6100384;23;20030;-87
2022/01/09 07:10:59;;;;;;;22.83;3.10;;;5.60;99.90;;;;;;6100451;23;20093;-87
2022/01/09 07:13:25;;;;;;;24.63;2.95;;;5.50;99.90;;;;;;6100439;23;20018;-87
2022/01/09 07:15:51;;;;;;;26.07;3.37;;;5.50;99.90;;;;;;6100498;23;20073;-86
2022/01/09 07:18:16;;;;;;;21.13;2.80;;;5.50;99.90;;;;;;6100357;23;20018;-86
2022/01/09 07:20:42;;;;;;;28.60;2.97;;;5.50;99.90;;;;;;6100385;23;20021;-86
2022/01/09 07:23:08;;;;;;;21.53;3.40;;;5.50;99.90;;;;;;6126384;23;20018;-86
2022/01/09 07:25:33;;;;;;;22.77;3.33;;;5.50;99.90;;;;;;6126303;23;20045;-86
2022/01/09 07:27:59;;;;;;;19.37;2.90;;;5.50;99.90;;;;;;6100372;23;20053;-86
2022/01/09 07:30:27;;;;;;;22.37;2.67;;;5.50;99.90;;;;;;6126360;23;20148;-87
2022/01/09 07:32:54;;;;;;;22.35;2.80;;;5.50;99.90;;;;;;6100213;23;20385;-87
2022/01/09 07:35:19;;;;;;;20.67;2.63;;;5.50;99.90;;;;;;6126181;23;20025;-87
2022/01/09 07:37:45;;;;;;;21.53;3.27;;;5.50;99.90;;;;;;6100261;23;20022;-86
2022/01/09 07:40:12;;;;;;;20.13;2.80;;;5.50;99.90;;;;;;6100377;23;20139;-86
2022/01/09 07:42:38;;;;;;;20.90;3.28;;;5.50;99.90;;;;;;6126190;23;20025;-86
2022/01/09 07:45:07;;;;;;;18.65;2.97;;;5.50;99.90;;;;;;6126177;23;20352;-86
2022/01/09 07:47:33;;;;;;;23.55;3.03;;;5.50;99.90;;;;;;6099996;23;20445;-86
2022/01/09 07:49:59;;;;;;;20.00;3.35;;;5.50;99.90;;;;;;6100347;23;20057;-86
2022/01/09 07:52:25;;;;;;;22.90;2.87;;;5.40;99.90;;;;;;6100199;23;20022;-87
2022/01/09 07:54:50;;;;;;;22.20;3.10;;;5.40;99.90;;;;;;6126127;23;20049;-87
2022/01/09 07:57:17;;;;;;;22.03;3.07;;;5.40;99.90;;;;;;6100269;23;20352;-87
2022/01/09 07:59:43;;;;;;;21.60;3.45;;;5.40;99.90;;;;;;6100394;23;20336;-87
2022/01/09 08:02:09;;;;;;;24.20;3.33;;;5.30;99.90;;;;;;6100296;23;20025;-87
2022/01/09 08:04:35;;;;;;;22.92;4.15;;;5.40;99.90;;;;;;6126101;23;20065;-86
2022/01/09 08:07:01;;;;;;;27.20;3.75;;;5.30;99.90;;;;;;6099815;23;20018;-87
2022/01/09 08:09:27;;;;;;;30.13;3.67;;;5.30;99.90;;;;;;6126179;23;20014;-86
2022/01/09 08:11:53;;;;;;;23.73;3.43;;;5.30;99.90;;;;;;6100066;23;20014;-87
2022/01/09 08:14:19;;;;;;;20.55;2.83;;;5.30;99.90;;;;;;6099870;23;20100;-86
2022/01/09 08:16:44;;;;;;;32.77;3.77;;;5.30;99.90;;;;;;6126340;23;20376;-86
2022/01/09 08:19:10;;;;;;;14.27;2.47;;;5.30;99.90;;;;;;6126099;23;20073;-86
2022/01/09 08:21:36;;;;;;;28.50;3.33;;;5.30;99.90;;;;;;6100052;23;20018;-86
2022/01/09 08:24:02;;;;;;;25.67;2.70;;;5.30;99.90;;;;;;6075996;23;20317;-86
2022/01/09 08:26:27;;;;;;;24.43;3.47;;;5.30;99.90;;;;;;6100035;23;20041;-86
2022/01/09 08:28:54;;;;;;;20.83;3.20;;;5.30;99.90;;;;;;6099922;23;20101;-86
2022/01/09 08:31:20;;;;;;;23.38;2.90;;;5.30;99.90;;;;;;6100015;23;20025;-87
2022/01/09 08:33:47;;;;;;;24.33;3.38;;;5.30;99.90;;;;;;6099804;23;20024;-88
2022/01/09 08:36:13;;;;;;;26.00;3.95;;;5.30;99.90;;;;;;6125996;23;20024;-87
2022/01/09 08:38:39;;;;;;;22.80;2.72;;;5.30;99.90;;;;;;6100059;23;20076;-87
2022/01/09 08:41:05;;;;;;;16.58;2.88;;;5.30;99.90;;;;;;6099929;23;20081;-87
2022/01/09 08:43:45;;;;;;;24.20;2.60;;;5.30;99.90;;;;;;6125950;23;20017;-86
2022/01/09 08:46:11;;;;;;;20.40;2.92;;;5.30;99.90;;;;;;6099778;23;20019;-87
2022/01/09 08:48:37;;;;;;;20.00;2.30;;;5.30;99.90;;;;;;6125830;23;20211;-85
2022/01/09 08:51:02;;;;;;;24.43;3.30;;;5.30;99.90;;;;;;6125859;23;20073;-86
2022/01/09 08:53:28;;;;;;;23.10;2.77;;;5.30;99.90;;;;;;6076894;23;20022;-85
2022/01/09 08:55:54;;;;;;;22.20;3.87;;;5.30;99.90;;;;;;6101837;23;20018;-86
2022/01/09 08:58:19;;;;;;;18.47;3.73;;;5.30;99.90;;;;;;6101707;23;20018;-86
2022/01/09 09:01:16;;;;;;;24.90;3.37;;;5.30;99.90;;;;;;6101923;23;20387;-86
2022/01/09 09:03:54;;;;;;;16.38;2.28;;;5.30;99.90;;;;;;6101666;23;20014;-86
2022/01/09 09:06:20;;;;;;;19.42;2.33;;;5.30;99.90;;;;;;6101324;23;20027;-85
2022/01/09 09:08:46;;;;;;;19.17;2.80;;;5.30;99.90;;;;;;6101536;23;20037;-87
2022/01/09 09:11:12;;;;;;;18.93;2.87;;;5.30;99.90;;;;;;6077823;23;20127;-87
2022/01/09 09:13:47;;;;;;;20.63;3.30;;;5.30;99.90;;;;;;6101567;23;20014;-87
2022/01/09 09:16:15;;;;;;;19.65;3.15;;;5.30;99.90;;;;;;6101599;23;20018;-86
2022/01/09 09:18:41;;;;;;;21.83;3.17;;;5.30;99.90;;;;;;6077177;23;20018;-84
2022/01/09 09:21:07;;;;;;;17.02;2.50;;;5.30;99.90;;;;;;6101415;23;20347;-86
2022/01/09 09:23:33;;;;;;;23.03;2.83;;;5.30;99.90;;;;;;6125494;23;20050;-85
2022/01/09 09:25:58;;;;;;;15.23;2.20;;;5.30;99.90;;;;;;6101195;23;20045;-85
2022/01/09 09:28:24;;;;;;;16.57;2.30;;;5.30;99.90;;;;;;6077137;23;20440;-86
2022/01/09 09:30:49;;;;;;;17.93;2.43;;;5.30;99.90;;;;;;6101261;23;20025;-86
2022/01/09 09:33:15;;;;;;;15.23;2.10;;;5.40;99.90;;;;;;6101414;23;20094;-86
2022/01/09 09:35:41;;;;;;;13.80;2.47;;;5.40;99.90;;;;;;6127318;23;20069;-86
2022/01/09 09:38:06;;;;;;;20.30;2.50;;;5.40;99.90;;;;;;6101265;23;20010;-86
2022/01/09 09:40:32;;;;;;;18.23;2.30;;;5.40;99.90;;;;;;6127171;23;20024;-85
2022/01/09 09:42:58;;;;;;;17.90;2.23;;;5.40;99.90;;;;;;6127237;23;20425;-85
2022/01/09 09:47:59;;;;;;;18.02;2.33;;;5.50;99.90;;;;;;6189929;23;20021;-95
2022/01/09 09:51:04;;;;;;;;;;;;;;;;;;;;;
2022/01/09 09:57:54;;;;;;;14.82;1.85;;;5.60;99.90;;;;;;6053312;23;20033;-95
2022/01/09 10:04:10;;;;;;;14.18;1.92;;;5.60;99.90;;;;;;6067122;23;20029;-88
2022/01/09 10:06:40;;;;;;;16.65;1.70;;;5.60;99.90;;;;;;6018611;23;20027;-88
2022/01/09 10:09:09;;;;;;;11.40;2.45;;;5.60;99.90;;;;;;6130319;23;20144;-87
2022/01/09 10:11:45;;;;;;;16.95;2.58;;;5.60;99.90;;;;;;6159691;23;20443;-89
2022/01/09 10:14:16;;;;;;;15.57;2.63;;;5.60;99.90;;;;;;6135574;23;20028;-87
2022/01/09 10:17:02;;;;;;;14.98;2.13;;;5.70;99.90;;;;;;6160101;23;20331;-86
2022/01/09 10:28:12;;;;;;;16.02;2.75;;;5.70;99.90;;;;;;6157328;23;20025;-96
2022/01/09 10:36:51;;;;;;;13.23;2.00;;;5.70;99.90;;;;;;6156726;23;20029;-90
2022/01/09 10:39:30;;;;;;;16.98;2.50;;;5.80;99.90;;;;;;6131322;23;20316;-89
2022/01/09 10:42:02;;;;;;;12.07;2.25;;;5.70;99.90;;;;;;6130920;23;20017;-89
2022/01/09 10:48:21;;;;;;;15.00;2.03;;;5.70;99.90;;;;;;6130113;23;20100;-93
2022/01/09 10:50:51;;;;;;;14.27;1.90;;;5.70;99.90;;;;;;6130952;23;20026;-89
2022/01/09 10:53:58;;;;;;;15.45;1.90;;;5.80;99.90;;;;;;6131019;23;20022;-89
2022/01/09 10:59:00;;;;;;;18.23;2.42;;;5.90;99.90;;;;;;6156362;23;20052;-88
2022/01/09 11:01:32;;;;;;;9.02;1.52;;;5.90;99.90;;;;;;6106270;23;20025;-90
2022/01/09 11:04:00;;;;;;;18.90;1.88;;;6.00;99.90;;;;;;6130876;23;20025;-93
2022/01/09 11:06:28;;;;;;;19.20;2.13;;;6.00;99.90;;;;;;6130651;23;20451;-93
2022/01/09 11:08:56;;;;;;;13.85;1.70;;;6.00;99.90;;;;;;6130515;23;20022;-89
2022/01/09 11:11:29;;;;;;;12.48;1.67;;;6.00;99.90;;;;;;6130768;23;20546;-88
2022/01/09 11:13:57;;;;;;;14.68;1.92;;;6.00;99.90;;;;;;6130459;23;20016;-93
2022/01/09 11:16:33;;;;;;;13.15;2.47;;;6.00;99.90;;;;;;6130796;23;20518;-90
2022/01/09 11:19:25;;;;;;;17.55;2.30;;;6.00;99.90;;;;;;6130396;23;20036;-90
2022/01/09 11:21:55;;;;;;;17.92;2.45;;;6.00;99.90;;;;;;6124915;23;20064;-90
2022/01/09 11:24:56;;;;;;;18.95;2.58;;;6.00;99.90;;;;;;6130300;23;20466;-91
2022/01/09 11:48:53;;;;;;;15.50;2.10;;;6.00;99.90;;;;;;6156258;23;20029;-89
2022/01/09 12:04:11;;;;;;;;;;;;;;;;;;;;;
2022/01/09 12:07:05;;;;;;;13.65;1.88;;;6.10;99.90;;;;;;6128585;23;20018;-91
2022/01/09 12:17:54;;;;;;;;;;;;;;;;;;;;;
2022/01/09 12:54:30;;;;;;;16.65;1.90;;;7.00;99.90;;;;;;6127692;23;20026;-90
2022/01/09 12:56:58;;;;;;;14.02;2.13;;;7.00;99.90;;;;;;6126812;23;20347;-90
2022/01/09 12:59:32;;;;;;;15.95;1.98;;;7.10;99.90;;;;;;6126624;23;20101;-91
2022/01/09 13:01:58;;;;;;;11.20;2.10;;;7.10;99.90;;;;;;6126513;23;20018;-90
2022/01/09 13:04:24;;;;;;;12.50;1.63;;;7.20;99.90;;;;;;6126273;23;20104;-90
2022/01/09 13:06:53;;;;;;;14.63;2.10;;;7.20;99.90;;;;;;6125917;23;20022;-89
2022/01/09 13:09:21;;;;;;;15.65;2.03;;;7.10;99.90;;;;;;6101778;23;20017;-91
2022/01/09 13:12:03;;;;;;;18.77;2.30;;;7.10;99.90;;;;;;6126301;23;20025;-91
2022/01/09 13:14:29;;;;;;;13.82;1.80;;;7.10;99.90;;;;;;6126333;23;20096;-91
2022/01/09 13:16:57;;;;;;;17.20;2.10;;;7.00;99.90;;;;;;6126356;23;20511;-90
2022/01/09 13:19:23;;;;;;;19.05;2.75;;;7.00;99.90;;;;;;6126290;23;20050;-87
2022/01/09 13:21:52;;;;;;;14.57;1.90;;;6.90;99.90;;;;;;6126230;23;20053;-89
2022/01/09 13:24:21;;;;;;;11.40;2.20;;;6.90;99.90;;;;;;6126535;23;20014;-90
2022/01/09 13:27:04;;;;;;;18.13;2.25;;;6.80;99.90;;;;;;6125814;23;20040;-91
2022/01/09 13:29:35;;;;;;;14.95;1.85;;;6.70;99.90;;;;;;6126381;23;20053;-91
2022/01/09 13:32:02;;;;;;;15.60;2.47;;;6.70;99.90;;;;;;6126079;23;20014;-89
2022/01/09 13:34:28;;;;;;;14.02;2.10;;;6.70;99.90;;;;;;6124471;23;20021;-90
2022/01/09 13:36:56;;;;;;;17.83;2.37;;;6.80;99.90;;;;;;6125029;23;20014;-89
2022/01/09 13:39:28;;;;;;;14.10;2.30;;;6.80;99.90;;;;;;6125165;23;20018;-92
2022/01/09 13:41:58;;;;;;;16.10;1.85;;;6.80;99.90;;;;;;6126096;23;20058;-90
2022/01/09 13:44:25;;;;;;;13.68;1.70;;;6.80;99.90;;;;;;6126091;23;20122;-90
2022/01/09 13:47:16;;;;;;;13.70;1.95;;;6.80;99.90;;;;;;6125086;23;20451;-90
2022/01/09 13:49:48;;;;;;;10.65;2.08;;;6.80;99.90;;;;;;6127590;23;20022;-90
2022/01/09 13:52:37;;;;;;;8.48;1.15;;;6.80;99.90;;;;;;6156605;23;20045;-92
2022/01/09 13:55:19;;;;;;;12.48;2.15;;;6.80;99.90;;;;;;6107572;23;20013;-92
2022/01/09 13:58:43;;;;;;;;;;;;;;;;;;;;;
2022/01/09 14:02:02;;;;;;;18.08;1.95;;;6.80;99.90;;;;;;6127888;23;20014;-90
2022/01/09 14:07:30;;;;;;;12.52;1.92;;;6.80;99.90;;;;;;6110582;23;20049;-90
2022/01/09 14:09:56;;;;;;;15.15;2.25;;;6.80;99.90;;;;;;6126379;23;20392;-89
2022/01/09 14:12:23;;;;;;;10.60;1.67;;;6.70;99.90;;;;;;6102098;23;20024;-90
2022/01/09 14:14:50;;;;;;;11.10;1.45;;;6.80;99.90;;;;;;6126948;23;20022;-91
2022/01/09 14:17:46;;;;;;;11.02;1.75;;;6.70;99.90;;;;;;6126536;23;20456;-90
2022/01/09 14:20:23;;;;;;;11.15;1.50;;;6.70;99.90;;;;;;6114603;23;20116;-92
2022/01/09 14:22:54;;;;;;;13.50;1.67;;;6.70;99.90;;;;;;6126817;23;20025;-91
2022/01/09 14:25:31;;;;;;;14.52;1.55;;;6.60;99.90;;;;;;6126453;23;20018;-91
2022/01/09 14:28:02;;;;;;;8.98;1.85;;;6.60;99.90;;;;;;6126303;23;20518;-92
2022/01/09 14:30:32;;;;;;;12.65;1.92;;;6.60;99.90;;;;;;6126721;23;20069;-91
2022/01/09 14:33:18;;;;;;;12.25;1.40;;;6.60;99.90;;;;;;6126620;23;20021;-94
2022/01/09 14:36:02;;;;;;;10.02;1.88;;;6.50;99.90;;;;;;6125263;23;20448;-91
2022/01/09 14:38:31;;;;;;;8.60;1.90;;;6.50;99.90;;;;;;6123680;23;20040;-92
2022/01/09 14:41:01;;;;;;;10.77;1.58;;;6.40;99.90;;;;;;6126303;23;20089;-91
2022/01/09 14:43:29;;;;;;;11.23;1.63;;;6.30;99.90;;;;;;6124455;23;20025;-91
2022/01/09 14:45:57;;;;;;;12.02;4.47;;;6.30;99.90;;;;;;6126379;23;20014;-93
2022/01/09 14:48:34;;;;;;;17.35;3.58;;;6.20;99.90;;;;;;6101871;23;20029;-93
2022/01/09 14:51:02;;;;;;;11.05;3.65;;;6.10;99.90;;;;;;6126167;23;20018;-96
2022/01/09 14:53:28;;;;;;;15.88;7.85;;;6.10;99.90;;;;;;6126001;23;20022;-91
2022/01/09 14:55:57;;;;;;;14.05;5.07;;;6.00;99.90;;;;;;6101351;23;20025;-93
2022/01/09 14:58:27;;;;;;;15.15;2.65;;;6.00;99.90;;;;;;6125802;23;20079;-91
2022/01/09 15:00:58;;;;;;;11.77;2.92;;;5.90;99.90;;;;;;6130467;23;20024;-91
2022/01/09 15:07:44;;;;;;;8.48;1.75;;;5.90;99.90;;;;;;6014456;23;20106;-91
2022/01/09 15:10:10;;;;;;;45.45;21.33;;;5.80;99.90;;;;;;6069320;23;20018;-94
2022/01/09 15:12:37;;;;;;;16.07;4.87;;;5.70;99.90;;;;;;6095925;23;20532;-91
2022/01/09 15:15:07;;;;;;;8.02;1.90;;;5.70;99.90;;;;;;6135880;23;20022;-91
2022/01/09 15:17:33;;;;;;;12.93;2.10;;;5.70;99.90;;;;;;6130761;23;20014;-93
2022/01/09 15:20:06;;;;;;;10.93;1.80;;;5.60;99.90;;;;;;6131087;23;20024;-92
2022/01/09 15:22:32;;;;;;;10.23;1.67;;;5.60;99.90;;;;;;6129056;23;20022;-92
2022/01/09 15:24:58;;;;;;;11.73;1.80;;;5.60;99.90;;;;;;6129167;23;20021;-92
2022/01/09 15:27:24;;;;;;;9.32;1.58;;;5.60;99.90;;;;;;6129783;23;20017;-91
2022/01/09 15:29:51;;;;;;;10.52;2.00;;;5.60;99.90;;;;;;6129909;23;20022;-92
2022/01/09 15:32:16;;;;;;;10.48;2.78;;;5.60;99.90;;;;;;6129563;23;20088;-91